sensor_id;sensor_type;location;lat;lon;timestamp;temperature;humidity
67763;DHT22;54566;52.022;5.582;2022-07-05T00:01:06;16.10;60.30
67763;DHT22;54566;52.022;5.582;2022-07-05T00:03:32;16.00;60.30
67763;DHT22;54566;52.022;5.582;2022-07-05T00:05:58;15.90;60.60
67763;DHT22;54566;52.022;5.582;2022-07-05T00:08:23;15.80;61.00
67763;DHT22;54566;52.022;5.582;2022-07-05T00:10:49;15.70;61.30
67763;DHT22;54566;52.022;5.582;2022-07-05T00:13:15;15.70;61.30
67763;DHT22;54566;52.022;5.582;2022-07-05T00:15:41;15.70;61.30
67763;DHT22;54566;52.022;5.582;2022-07-05T00:18:07;15.60;62.20
67763;DHT22;54566;52.022;5.582;2022-07-05T00:20:33;15.60;62.30
67763;DHT22;54566;52.022;5.582;2022-07-05T00:22:59;15.50;62.50
67763;DHT22;54566;52.022;5.582;2022-07-05T00:25:25;15.50;62.60
67763;DHT22;54566;52.022;5.582;2022-07-05T00:27:50;15.40;63.00
67763;DHT22;54566;52.022;5.582;2022-07-05T00:30:19;15.40;63.10
67763;DHT22;54566;52.022;5.582;2022-07-05T00:32:45;15.40;63.10
67763;DHT22;54566;52.022;5.582;2022-07-05T00:35:10;15.40;63.50
67763;DHT22;54566;52.022;5.582;2022-07-05T00:37:36;15.30;63.70
67763;DHT22;54566;52.022;5.582;2022-07-05T00:40:03;15.30;63.70
67763;DHT22;54566;52.022;5.582;2022-07-05T00:42:29;15.40;63.70
67763;DHT22;54566;52.022;5.582;2022-07-05T00:44:54;15.40;63.40
67763;DHT22;54566;52.022;5.582;2022-07-05T00:47:20;15.30;63.90
67763;DHT22;54566;52.022;5.582;2022-07-05T00:49:46;15.30;63.60
67763;DHT22;54566;52.022;5.582;2022-07-05T00:52:12;15.30;63.30
67763;DHT22;54566;52.022;5.582;2022-07-05T00:54:39;15.30;64.30
67763;DHT22;54566;52.022;5.582;2022-07-05T00:57:05;15.30;63.50
67763;DHT22;54566;52.022;5.582;2022-07-05T00:59:31;15.30;63.70
67763;DHT22;54566;52.022;5.582;2022-07-05T01:01:58;15.30;63.70
67763;DHT22;54566;52.022;5.582;2022-07-05T01:04:23;15.20;64.10
67763;DHT22;54566;52.022;5.582;2022-07-05T01:06:51;15.20;64.40
67763;DHT22;54566;52.022;5.582;2022-07-05T01:09:19;15.20;64.30
67763;DHT22;54566;52.022;5.582;2022-07-05T01:11:49;15.20;64.30
67763;DHT22;54566;52.022;5.582;2022-07-05T01:14:20;15.20;64.60
67763;DHT22;54566;52.022;5.582;2022-07-05T01:16:48;15.20;64.60
67763;DHT22;54566;52.022;5.582;2022-07-05T01:19:13;15.20;64.40
67763;DHT22;54566;52.022;5.582;2022-07-05T01:21:42;15.10;64.20
67763;DHT22;54566;52.022;5.582;2022-07-05T01:24:12;15.10;64.50
67763;DHT22;54566;52.022;5.582;2022-07-05T01:26:40;15.10;64.80
67763;DHT22;54566;52.022;5.582;2022-07-05T01:29:06;15.00;64.20
67763;DHT22;54566;52.022;5.582;2022-07-05T01:31:32;15.00;64.30
67763;DHT22;54566;52.022;5.582;2022-07-05T01:33:58;14.90;64.10
67763;DHT22;54566;52.022;5.582;2022-07-05T01:36:24;14.80;65.20
67763;DHT22;54566;52.022;5.582;2022-07-05T01:38:50;14.70;65.40
67763;DHT22;54566;52.022;5.582;2022-07-05T01:41:16;14.70;65.50
67763;DHT22;54566;52.022;5.582;2022-07-05T01:43:42;14.60;65.70
67763;DHT22;54566;52.022;5.582;2022-07-05T01:46:09;14.60;66.10
67763;DHT22;54566;52.022;5.582;2022-07-05T01:48:37;14.40;67.00
67763;DHT22;54566;52.022;5.582;2022-07-05T01:53:32;14.30;67.50
67763;DHT22;54566;52.022;5.582;2022-07-05T01:55:59;14.20;67.10
67763;DHT22;54566;52.022;5.582;2022-07-05T01:58:26;14.20;67.10
67763;DHT22;54566;52.022;5.582;2022-07-05T02:00:54;14.20;67.50
67763;DHT22;54566;52.022;5.582;2022-07-05T02:03:20;14.10;68.60
67763;DHT22;54566;52.022;5.582;2022-07-05T02:05:47;14.10;68.20
67763;DHT22;54566;52.022;5.582;2022-07-05T02:08:13;14.00;68.30
67763;DHT22;54566;52.022;5.582;2022-07-05T02:10:40;14.00;68.30
67763;DHT22;54566;52.022;5.582;2022-07-05T02:13:06;14.10;68.20
67763;DHT22;54566;52.022;5.582;2022-07-05T02:15:33;14.10;68.20
67763;DHT22;54566;52.022;5.582;2022-07-05T02:18:00;14.20;68.20
67763;DHT22;54566;52.022;5.582;2022-07-05T02:20:26;14.20;67.80
67763;DHT22;54566;52.022;5.582;2022-07-05T02:22:52;14.30;67.70
67763;DHT22;54566;52.022;5.582;2022-07-05T02:25:17;14.30;67.70
67763;DHT22;54566;52.022;5.582;2022-07-05T02:27:43;14.40;67.70
67763;DHT22;54566;52.022;5.582;2022-07-05T02:30:09;14.40;68.00
67763;DHT22;54566;52.022;5.582;2022-07-05T02:32:35;14.40;67.80
67763;DHT22;54566;52.022;5.582;2022-07-05T02:35:01;14.50;67.60
67763;DHT22;54566;52.022;5.582;2022-07-05T02:37:27;14.50;67.40
67763;DHT22;54566;52.022;5.582;2022-07-05T02:39:54;14.60;67.10
67763;DHT22;54566;52.022;5.582;2022-07-05T02:42:19;14.60;67.20
67763;DHT22;54566;52.022;5.582;2022-07-05T02:44:45;14.60;67.40
67763;DHT22;54566;52.022;5.582;2022-07-05T02:47:11;14.70;67.20
67763;DHT22;54566;52.022;5.582;2022-07-05T02:49:37;14.80;67.10
67763;DHT22;54566;52.022;5.582;2022-07-05T02:52:03;14.80;66.60
67763;DHT22;54566;52.022;5.582;2022-07-05T02:54:29;14.80;66.60
67763;DHT22;54566;52.022;5.582;2022-07-05T02:56:54;14.80;67.20
67763;DHT22;54566;52.022;5.582;2022-07-05T02:59:20;14.80;67.40
67763;DHT22;54566;52.022;5.582;2022-07-05T03:01:45;14.80;67.70
67763;DHT22;54566;52.022;5.582;2022-07-05T03:04:11;14.80;68.50
67763;DHT22;54566;52.022;5.582;2022-07-05T03:06:37;14.80;68.50
67763;DHT22;54566;52.022;5.582;2022-07-05T03:09:03;14.80;68.50
67763;DHT22;54566;52.022;5.582;2022-07-05T03:11:28;14.60;69.60
67763;DHT22;54566;52.022;5.582;2022-07-05T03:13:55;14.60;69.80
67763;DHT22;54566;52.022;5.582;2022-07-05T03:16:21;14.60;69.70
67763;DHT22;54566;52.022;5.582;2022-07-05T03:18:50;14.60;69.50
67763;DHT22;54566;52.022;5.582;2022-07-05T03:21:16;14.70;69.70
67763;DHT22;54566;52.022;5.582;2022-07-05T03:23:42;14.80;69.30
67763;DHT22;54566;52.022;5.582;2022-07-05T03:26:08;14.80;69.20
67763;DHT22;54566;52.022;5.582;2022-07-05T03:28:33;14.80;69.10
67763;DHT22;54566;52.022;5.582;2022-07-05T03:30:59;14.90;68.90
67763;DHT22;54566;52.022;5.582;2022-07-05T03:33:25;14.90;69.00
67763;DHT22;54566;52.022;5.582;2022-07-05T03:35:50;15.00;68.80
67763;DHT22;54566;52.022;5.582;2022-07-05T03:38:16;15.00;69.00
67763;DHT22;54566;52.022;5.582;2022-07-05T03:40:42;15.00;69.20
67763;DHT22;54566;52.022;5.582;2022-07-05T03:43:07;15.00;68.90
67763;DHT22;54566;52.022;5.582;2022-07-05T03:45:33;15.00;68.80
67763;DHT22;54566;52.022;5.582;2022-07-05T03:47:59;15.00;69.20
67763;DHT22;54566;52.022;5.582;2022-07-05T03:50:26;15.00;68.80
67763;DHT22;54566;52.022;5.582;2022-07-05T03:52:51;15.10;68.70
67763;DHT22;54566;52.022;5.582;2022-07-05T03:55:17;15.10;68.80
67763;DHT22;54566;52.022;5.582;2022-07-05T03:57:43;15.10;68.90
67763;DHT22;54566;52.022;5.582;2022-07-05T04:00:09;15.20;68.70
67763;DHT22;54566;52.022;5.582;2022-07-05T04:02:34;15.20;69.00
67763;DHT22;54566;52.022;5.582;2022-07-05T04:05:00;15.20;68.80
67763;DHT22;54566;52.022;5.582;2022-07-05T04:07:26;15.30;69.10
67763;DHT22;54566;52.022;5.582;2022-07-05T04:09:51;15.30;68.90
67763;DHT22;54566;52.022;5.582;2022-07-05T04:12:17;15.40;68.60
67763;DHT22;54566;52.022;5.582;2022-07-05T04:14:43;15.40;69.10
67763;DHT22;54566;52.022;5.582;2022-07-05T04:17:08;15.40;69.00
67763;DHT22;54566;52.022;5.582;2022-07-05T04:19:35;15.50;68.70
67763;DHT22;54566;52.022;5.582;2022-07-05T04:22:01;15.50;69.00
67763;DHT22;54566;52.022;5.582;2022-07-05T04:24:26;15.50;69.60
67763;DHT22;54566;52.022;5.582;2022-07-05T04:26:52;15.60;68.90
67763;DHT22;54566;52.022;5.582;2022-07-05T04:29:18;15.60;68.90
67763;DHT22;54566;52.022;5.582;2022-07-05T04:31:43;15.60;69.00
67763;DHT22;54566;52.022;5.582;2022-07-05T04:34:09;15.70;68.60
67763;DHT22;54566;52.022;5.582;2022-07-05T04:36:35;15.80;68.40
67763;DHT22;54566;52.022;5.582;2022-07-05T04:39:04;15.90;68.60
67763;DHT22;54566;52.022;5.582;2022-07-05T04:41:29;16.00;68.40
67763;DHT22;54566;52.022;5.582;2022-07-05T04:43:55;16.10;68.60
67763;DHT22;54566;52.022;5.582;2022-07-05T04:46:20;16.00;69.00
67763;DHT22;54566;52.022;5.582;2022-07-05T04:48:46;15.90;69.80
67763;DHT22;54566;52.022;5.582;2022-07-05T04:51:12;15.90;70.10
67763;DHT22;54566;52.022;5.582;2022-07-05T04:53:37;15.90;70.00
67763;DHT22;54566;52.022;5.582;2022-07-05T04:56:04;16.00;69.60
67763;DHT22;54566;52.022;5.582;2022-07-05T04:58:30;16.20;69.20
67763;DHT22;54566;52.022;5.582;2022-07-05T05:00:56;16.30;69.20
67763;DHT22;54566;52.022;5.582;2022-07-05T05:03:21;16.30;69.40
67763;DHT22;54566;52.022;5.582;2022-07-05T05:05:47;16.40;69.30
67763;DHT22;54566;52.022;5.582;2022-07-05T05:08:13;16.50;69.10
67763;DHT22;54566;52.022;5.582;2022-07-05T05:10:39;16.60;69.20
67763;DHT22;54566;52.022;5.582;2022-07-05T05:13:05;16.60;69.10
67763;DHT22;54566;52.022;5.582;2022-07-05T05:15:30;16.70;69.10
67763;DHT22;54566;52.022;5.582;2022-07-05T05:17:56;16.70;69.50
67763;DHT22;54566;52.022;5.582;2022-07-05T05:20:22;16.70;69.40
67763;DHT22;54566;52.022;5.582;2022-07-05T05:22:48;16.60;69.50
67763;DHT22;54566;52.022;5.582;2022-07-05T05:25:14;16.50;70.10
67763;DHT22;54566;52.022;5.582;2022-07-05T05:27:41;16.50;69.90
67763;DHT22;54566;52.022;5.582;2022-07-05T05:30:09;16.50;70.10
67763;DHT22;54566;52.022;5.582;2022-07-05T05:32:35;16.40;70.20
67763;DHT22;54566;52.022;5.582;2022-07-05T05:35:02;16.40;70.60
67763;DHT22;54566;52.022;5.582;2022-07-05T05:37:27;16.40;70.60
67763;DHT22;54566;52.022;5.582;2022-07-05T05:39:53;16.40;70.40
67763;DHT22;54566;52.022;5.582;2022-07-05T05:42:19;16.40;70.90
67763;DHT22;54566;52.022;5.582;2022-07-05T05:44:45;16.30;71.10
67763;DHT22;54566;52.022;5.582;2022-07-05T05:47:14;16.40;70.80
67763;DHT22;54566;52.022;5.582;2022-07-05T05:49:39;16.40;70.60
67763;DHT22;54566;52.022;5.582;2022-07-05T05:52:05;16.40;71.00
67763;DHT22;54566;52.022;5.582;2022-07-05T05:54:31;16.40;71.60
67763;DHT22;54566;52.022;5.582;2022-07-05T05:56:57;16.40;71.50
67763;DHT22;54566;52.022;5.582;2022-07-05T05:59:22;16.50;71.80
67763;DHT22;54566;52.022;5.582;2022-07-05T06:01:48;16.50;71.90
67763;DHT22;54566;52.022;5.582;2022-07-05T06:04:13;16.50;71.30
67763;DHT22;54566;52.022;5.582;2022-07-05T06:06:39;16.70;71.00
67763;DHT22;54566;52.022;5.582;2022-07-05T06:09:04;16.70;70.40
67763;DHT22;54566;52.022;5.582;2022-07-05T06:11:30;16.80;70.30
67763;DHT22;54566;52.022;5.582;2022-07-05T06:13:56;16.90;70.00
67763;DHT22;54566;52.022;5.582;2022-07-05T06:16:21;16.90;69.80
67763;DHT22;54566;52.022;5.582;2022-07-05T06:18:47;17.00;69.40
67763;DHT22;54566;52.022;5.582;2022-07-05T06:21:13;17.10;69.50
67763;DHT22;54566;52.022;5.582;2022-07-05T06:23:38;17.10;69.40
67763;DHT22;54566;52.022;5.582;2022-07-05T06:26:04;17.20;70.00
67763;DHT22;54566;52.022;5.582;2022-07-05T06:28:29;17.50;69.30
67763;DHT22;54566;52.022;5.582;2022-07-05T06:30:57;18.10;67.80
67763;DHT22;54566;52.022;5.582;2022-07-05T06:33:22;18.60;66.90
67763;DHT22;54566;52.022;5.582;2022-07-05T06:35:48;19.20;66.20
67763;DHT22;54566;52.022;5.582;2022-07-05T06:38:13;19.60;66.20
67763;DHT22;54566;52.022;5.582;2022-07-05T06:40:41;20.30;64.40
67763;DHT22;54566;52.022;5.582;2022-07-05T06:43:12;20.40;65.50
67763;DHT22;54566;52.022;5.582;2022-07-05T06:45:38;20.60;65.50
67763;DHT22;54566;52.022;5.582;2022-07-05T06:48:07;20.90;62.90
67763;DHT22;54566;52.022;5.582;2022-07-05T06:50:36;21.50;65.10
67763;DHT22;54566;52.022;5.582;2022-07-05T06:53:03;21.80;63.90
67763;DHT22;54566;52.022;5.582;2022-07-05T06:55:29;22.00;64.70
67763;DHT22;54566;52.022;5.582;2022-07-05T06:58:05;22.40;64.10
67763;DHT22;54566;52.022;5.582;2022-07-05T07:00:32;22.50;62.90
67763;DHT22;54566;52.022;5.582;2022-07-05T07:02:58;22.00;56.30
67763;DHT22;54566;52.022;5.582;2022-07-05T07:05:24;22.00;64.70
67763;DHT22;54566;52.022;5.582;2022-07-05T07:07:50;21.90;64.50
67763;DHT22;54566;52.022;5.582;2022-07-05T07:10:34;22.00;64.30
67763;DHT22;54566;52.022;5.582;2022-07-05T07:13:00;21.90;63.50
67763;DHT22;54566;52.022;5.582;2022-07-05T07:15:27;21.90;63.30
67763;DHT22;54566;52.022;5.582;2022-07-05T07:17:52;22.10;63.20
67763;DHT22;54566;52.022;5.582;2022-07-05T07:20:18;22.00;62.60
67763;DHT22;54566;52.022;5.582;2022-07-05T07:22:44;22.00;62.30
67763;DHT22;54566;52.022;5.582;2022-07-05T07:25:10;22.00;62.00
67763;DHT22;54566;52.022;5.582;2022-07-05T07:27:44;21.90;62.10
67763;DHT22;54566;52.022;5.582;2022-07-05T07:30:15;21.60;61.40
67763;DHT22;54566;52.022;5.582;2022-07-05T07:32:41;21.80;61.40
67763;DHT22;54566;52.022;5.582;2022-07-05T07:35:08;21.70;61.00
67763;DHT22;54566;52.022;5.582;2022-07-05T07:37:34;21.80;60.80
67763;DHT22;54566;52.022;5.582;2022-07-05T07:39:59;21.80;59.90
67763;DHT22;54566;52.022;5.582;2022-07-05T07:42:26;21.80;59.60
67763;DHT22;54566;52.022;5.582;2022-07-05T07:44:53;21.70;60.20
67763;DHT22;54566;52.022;5.582;2022-07-05T07:47:18;22.00;60.40
67763;DHT22;54566;52.022;5.582;2022-07-05T07:49:44;22.00;59.70
67763;DHT22;54566;52.022;5.582;2022-07-05T07:52:09;22.00;59.90
67763;DHT22;54566;52.022;5.582;2022-07-05T07:54:35;22.30;59.30
67763;DHT22;54566;52.022;5.582;2022-07-05T07:57:00;22.20;59.10
67763;DHT22;54566;52.022;5.582;2022-07-05T07:59:27;22.30;58.70
67763;DHT22;54566;52.022;5.582;2022-07-05T08:01:52;22.20;58.40
67763;DHT22;54566;52.022;5.582;2022-07-05T08:04:18;22.30;58.60
67763;DHT22;54566;52.022;5.582;2022-07-05T08:06:44;22.40;57.50
67763;DHT22;54566;52.022;5.582;2022-07-05T08:09:11;22.00;57.20
67763;DHT22;54566;52.022;5.582;2022-07-05T08:11:38;22.10;58.30
67763;DHT22;54566;52.022;5.582;2022-07-05T08:14:03;22.30;58.40
67763;DHT22;54566;52.022;5.582;2022-07-05T08:16:29;22.50;58.00
67763;DHT22;54566;52.022;5.582;2022-07-05T08:18:54;22.50;57.10
67763;DHT22;54566;52.022;5.582;2022-07-05T08:21:39;22.50;57.00
67763;DHT22;54566;52.022;5.582;2022-07-05T08:26:32;22.50;57.30
67763;DHT22;54566;52.022;5.582;2022-07-05T08:28:59;22.30;56.80
67763;DHT22;54566;52.022;5.582;2022-07-05T08:31:27;22.50;57.00
67763;DHT22;54566;52.022;5.582;2022-07-05T08:33:53;22.60;57.00
67763;DHT22;54566;52.022;5.582;2022-07-05T08:36:19;22.60;57.30
67763;DHT22;54566;52.022;5.582;2022-07-05T08:38:44;22.60;57.30
67763;DHT22;54566;52.022;5.582;2022-07-05T08:41:11;22.50;57.30
67763;DHT22;54566;52.022;5.582;2022-07-05T08:43:40;22.80;57.10
67763;DHT22;54566;52.022;5.582;2022-07-05T08:46:08;22.90;56.10
67763;DHT22;54566;52.022;5.582;2022-07-05T08:48:37;23.00;56.10
67763;DHT22;54566;52.022;5.582;2022-07-05T08:51:11;23.10;56.10
67763;DHT22;54566;52.022;5.582;2022-07-05T08:53:39;23.00;54.90
67763;DHT22;54566;52.022;5.582;2022-07-05T08:56:07;22.90;55.80
67763;DHT22;54566;52.022;5.582;2022-07-05T08:58:32;23.00;55.30
67763;DHT22;54566;52.022;5.582;2022-07-05T09:00:59;22.90;55.50
67763;DHT22;54566;52.022;5.582;2022-07-05T09:03:30;22.90;55.50
67763;DHT22;54566;52.022;5.582;2022-07-05T09:05:56;22.50;55.70
67763;DHT22;54566;52.022;5.582;2022-07-05T09:08:25;22.50;56.20
67763;DHT22;54566;52.022;5.582;2022-07-05T09:10:51;22.30;56.60
67763;DHT22;54566;52.022;5.582;2022-07-05T09:13:17;22.80;56.30
67763;DHT22;54566;52.022;5.582;2022-07-05T09:15:43;23.00;55.60
67763;DHT22;54566;52.022;5.582;2022-07-05T09:18:09;23.00;55.00
67763;DHT22;54566;52.022;5.582;2022-07-05T09:20:36;23.00;54.30
67763;DHT22;54566;52.022;5.582;2022-07-05T09:23:01;23.10;54.30
67763;DHT22;54566;52.022;5.582;2022-07-05T09:25:29;22.90;54.30
67763;DHT22;54566;52.022;5.582;2022-07-05T09:28:05;22.80;54.70
67763;DHT22;54566;52.022;5.582;2022-07-05T09:33:15;22.50;54.20
67763;DHT22;54566;52.022;5.582;2022-07-05T09:36:01;22.40;51.30
67763;DHT22;54566;52.022;5.582;2022-07-05T09:38:28;23.00;51.60
67763;DHT22;54566;52.022;5.582;2022-07-05T09:40:56;23.20;53.40
67763;DHT22;54566;52.022;5.582;2022-07-05T09:43:29;23.50;53.20
67763;DHT22;54566;52.022;5.582;2022-07-05T09:46:00;23.50;52.60
67763;DHT22;54566;52.022;5.582;2022-07-05T09:48:27;23.60;50.90
67763;DHT22;54566;52.022;5.582;2022-07-05T09:51:04;23.80;50.90
67763;DHT22;54566;52.022;5.582;2022-07-05T09:53:50;24.10;48.50
67763;DHT22;54566;52.022;5.582;2022-07-05T09:56:16;23.90;45.60
67763;DHT22;54566;52.022;5.582;2022-07-05T09:58:43;23.80;50.20
67763;DHT22;54566;52.022;5.582;2022-07-05T10:01:30;23.80;49.80
67763;DHT22;54566;52.022;5.582;2022-07-05T10:03:57;24.10;45.00
67763;DHT22;54566;52.022;5.582;2022-07-05T10:06:25;23.80;49.10
67763;DHT22;54566;52.022;5.582;2022-07-05T10:08:52;24.00;48.70
67763;DHT22;54566;52.022;5.582;2022-07-05T10:11:19;24.40;49.00
67763;DHT22;54566;52.022;5.582;2022-07-05T10:13:48;24.40;48.60
67763;DHT22;54566;52.022;5.582;2022-07-05T10:16:16;24.60;47.90
67763;DHT22;54566;52.022;5.582;2022-07-05T10:18:46;24.70;47.10
67763;DHT22;54566;52.022;5.582;2022-07-05T10:21:14;24.40;45.10
67763;DHT22;54566;52.022;5.582;2022-07-05T10:23:58;24.40;47.60
67763;DHT22;54566;52.022;5.582;2022-07-05T10:26:25;24.30;43.60
67763;DHT22;54566;52.022;5.582;2022-07-05T10:28:53;24.40;47.80
67763;DHT22;54566;52.022;5.582;2022-07-05T10:31:19;24.40;47.90
67763;DHT22;54566;52.022;5.582;2022-07-05T10:33:45;24.40;48.10
67763;DHT22;54566;52.022;5.582;2022-07-05T10:36:12;24.40;48.10
67763;DHT22;54566;52.022;5.582;2022-07-05T10:38:40;24.30;47.90
67763;DHT22;54566;52.022;5.582;2022-07-05T10:41:09;24.30;46.30
67763;DHT22;54566;52.022;5.582;2022-07-05T10:43:36;23.70;45.40
67763;DHT22;54566;52.022;5.582;2022-07-05T10:46:02;23.30;47.70
67763;DHT22;54566;52.022;5.582;2022-07-05T10:48:33;23.00;47.90
67763;DHT22;54566;52.022;5.582;2022-07-05T10:58:43;24.50;46.30
67763;DHT22;54566;52.022;5.582;2022-07-05T11:06:25;24.50;45.40
67763;DHT22;54566;52.022;5.582;2022-07-05T11:11:31;24.10;43.60
67763;DHT22;54566;52.022;5.582;2022-07-05T11:13:59;23.90;45.10
67763;DHT22;54566;52.022;5.582;2022-07-05T11:16:28;23.80;46.60
67763;DHT22;54566;52.022;5.582;2022-07-05T11:19:08;24.10;46.60
67763;DHT22;54566;52.022;5.582;2022-07-05T11:21:36;24.60;42.00
67763;DHT22;54566;52.022;5.582;2022-07-05T11:24:31;24.60;45.40
67763;DHT22;54566;52.022;5.582;2022-07-05T11:26:58;24.70;39.30
67763;DHT22;54566;52.022;5.582;2022-07-05T11:29:40;24.90;45.70
67763;DHT22;54566;52.022;5.582;2022-07-05T11:32:21;24.70;42.20
67763;DHT22;54566;52.022;5.582;2022-07-05T11:34:50;24.70;45.70
67763;DHT22;54566;52.022;5.582;2022-07-05T11:37:20;23.80;41.90
67763;DHT22;54566;52.022;5.582;2022-07-05T11:42:37;23.70;43.10
67763;DHT22;54566;52.022;5.582;2022-07-05T11:45:08;23.60;45.60
67763;DHT22;54566;52.022;5.582;2022-07-05T11:47:35;23.40;42.90
67763;DHT22;54566;52.022;5.582;2022-07-05T11:50:01;23.60;46.90
67763;DHT22;54566;52.022;5.582;2022-07-05T11:52:36;24.00;45.60
67763;DHT22;54566;52.022;5.582;2022-07-05T11:55:04;24.50;45.10
67763;DHT22;54566;52.022;5.582;2022-07-05T11:57:30;24.50;45.10
67763;DHT22;54566;52.022;5.582;2022-07-05T11:59:56;24.50;45.60
67763;DHT22;54566;52.022;5.582;2022-07-05T12:02:22;24.60;45.60
67763;DHT22;54566;52.022;5.582;2022-07-05T12:04:49;24.80;45.50
67763;DHT22;54566;52.022;5.582;2022-07-05T12:07:27;24.60;45.40
67763;DHT22;54566;52.022;5.582;2022-07-05T12:09:53;24.40;41.90
67763;DHT22;54566;52.022;5.582;2022-07-05T12:12:38;24.40;46.40
67763;DHT22;54566;52.022;5.582;2022-07-05T12:15:16;23.90;45.90
67763;DHT22;54566;52.022;5.582;2022-07-05T12:17:47;23.50;46.60
67763;DHT22;54566;52.022;5.582;2022-07-05T12:20:20;23.90;46.10
67763;DHT22;54566;52.022;5.582;2022-07-05T12:22:46;24.40;46.20
67763;DHT22;54566;52.022;5.582;2022-07-05T12:25:16;24.60;45.70
67763;DHT22;54566;52.022;5.582;2022-07-05T12:27:43;24.40;45.50
67763;DHT22;54566;52.022;5.582;2022-07-05T12:30:10;24.60;45.60
67763;DHT22;54566;52.022;5.582;2022-07-05T12:35:46;25.10;42.10
67763;DHT22;54566;52.022;5.582;2022-07-05T12:38:16;24.30;42.10
67763;DHT22;54566;52.022;5.582;2022-07-05T12:40:46;24.70;44.50
67763;DHT22;54566;52.022;5.582;2022-07-05T12:43:14;24.70;44.90
67763;DHT22;54566;52.022;5.582;2022-07-05T12:45:40;24.20;43.60
67763;DHT22;54566;52.022;5.582;2022-07-05T12:48:08;23.80;42.50
67763;DHT22;54566;52.022;5.582;2022-07-05T12:50:50;23.80;45.70
67763;DHT22;54566;52.022;5.582;2022-07-05T12:53:17;24.00;43.50
67763;DHT22;54566;52.022;5.582;2022-07-05T12:56:02;23.90;45.70
67763;DHT22;54566;52.022;5.582;2022-07-05T12:59:02;23.80;45.00
67763;DHT22;54566;52.022;5.582;2022-07-05T13:01:32;23.50;43.30
67763;DHT22;54566;52.022;5.582;2022-07-05T13:04:10;23.30;44.70
67763;DHT22;54566;52.022;5.582;2022-07-05T13:09:15;23.60;43.80
67763;DHT22;54566;52.022;5.582;2022-07-05T13:11:41;23.50;45.30
67763;DHT22;54566;52.022;5.582;2022-07-05T13:14:08;23.70;44.20
67763;DHT22;54566;52.022;5.582;2022-07-05T13:16:33;23.80;44.10
67763;DHT22;54566;52.022;5.582;2022-07-05T13:19:09;23.80;44.80
67763;DHT22;54566;52.022;5.582;2022-07-05T13:21:35;23.70;42.90
67763;DHT22;54566;52.022;5.582;2022-07-05T13:24:03;23.50;43.40
67763;DHT22;54566;52.022;5.582;2022-07-05T13:26:29;23.10;43.20
67763;DHT22;54566;52.022;5.582;2022-07-05T13:28:54;23.60;44.30
67763;DHT22;54566;52.022;5.582;2022-07-05T13:31:21;24.20;43.70
67763;DHT22;54566;52.022;5.582;2022-07-05T13:33:54;24.60;43.10
67763;DHT22;54566;52.022;5.582;2022-07-05T13:36:20;24.20;42.00
67763;DHT22;54566;52.022;5.582;2022-07-05T13:38:45;23.80;42.90
67763;DHT22;54566;52.022;5.582;2022-07-05T13:41:11;23.70;44.00
67763;DHT22;54566;52.022;5.582;2022-07-05T13:43:36;24.00;43.30
67763;DHT22;54566;52.022;5.582;2022-07-05T13:46:03;24.10;43.10
67763;DHT22;54566;52.022;5.582;2022-07-05T13:48:29;24.70;42.90
67763;DHT22;54566;52.022;5.582;2022-07-05T13:50:54;25.00;42.10
67763;DHT22;54566;52.022;5.582;2022-07-05T13:53:20;25.00;42.20
67763;DHT22;54566;52.022;5.582;2022-07-05T13:55:46;24.80;41.50
67763;DHT22;54566;52.022;5.582;2022-07-05T13:58:12;25.30;42.10
67763;DHT22;54566;52.022;5.582;2022-07-05T14:00:37;24.90;41.00
67763;DHT22;54566;52.022;5.582;2022-07-05T14:03:03;24.40;41.90
67763;DHT22;54566;52.022;5.582;2022-07-05T14:05:29;24.20;42.10
67763;DHT22;54566;52.022;5.582;2022-07-05T14:07:55;24.30;42.00
67763;DHT22;54566;52.022;5.582;2022-07-05T14:10:21;24.60;42.20
67763;DHT22;54566;52.022;5.582;2022-07-05T14:12:46;24.40;41.60
67763;DHT22;54566;52.022;5.582;2022-07-05T14:15:12;24.20;41.20
67763;DHT22;54566;52.022;5.582;2022-07-05T14:17:37;24.00;40.40
67763;DHT22;54566;52.022;5.582;2022-07-05T14:20:04;24.40;41.50
67763;DHT22;54566;52.022;5.582;2022-07-05T14:22:30;24.20;40.20
67763;DHT22;54566;52.022;5.582;2022-07-05T14:24:56;24.00;41.60
67763;DHT22;54566;52.022;5.582;2022-07-05T14:27:21;23.60;41.10
67763;DHT22;54566;52.022;5.582;2022-07-05T14:29:47;23.80;41.90
67763;DHT22;54566;52.022;5.582;2022-07-05T14:32:12;23.50;41.40
67763;DHT22;54566;52.022;5.582;2022-07-05T14:34:38;23.50;41.50
67763;DHT22;54566;52.022;5.582;2022-07-05T14:37:04;23.50;40.70
67763;DHT22;54566;52.022;5.582;2022-07-05T14:39:29;23.70;41.50
67763;DHT22;54566;52.022;5.582;2022-07-05T14:41:55;23.90;41.30
67763;DHT22;54566;52.022;5.582;2022-07-05T14:44:21;23.80;41.10
67763;DHT22;54566;52.022;5.582;2022-07-05T14:46:46;23.80;41.50
67763;DHT22;54566;52.022;5.582;2022-07-05T14:49:12;24.00;41.50
67763;DHT22;54566;52.022;5.582;2022-07-05T14:51:38;24.20;41.20
67763;DHT22;54566;52.022;5.582;2022-07-05T14:54:03;24.10;41.20
67763;DHT22;54566;52.022;5.582;2022-07-05T14:56:29;23.90;41.70
67763;DHT22;54566;52.022;5.582;2022-07-05T14:58:55;24.20;41.20
67763;DHT22;54566;52.022;5.582;2022-07-05T15:01:21;24.30;41.10
67763;DHT22;54566;52.022;5.582;2022-07-05T15:03:47;24.50;41.00
67763;DHT22;54566;52.022;5.582;2022-07-05T15:06:12;24.60;40.80
67763;DHT22;54566;52.022;5.582;2022-07-05T15:08:38;24.40;40.60
67763;DHT22;54566;52.022;5.582;2022-07-05T15:11:04;24.10;40.80
67763;DHT22;54566;52.022;5.582;2022-07-05T15:13:30;24.20;41.00
67763;DHT22;54566;52.022;5.582;2022-07-05T15:15:56;24.30;40.80
67763;DHT22;54566;52.022;5.582;2022-07-05T15:18:23;24.10;41.30
67763;DHT22;54566;52.022;5.582;2022-07-05T15:20:49;24.10;41.20
67763;DHT22;54566;52.022;5.582;2022-07-05T15:23:17;24.10;42.40
67763;DHT22;54566;52.022;5.582;2022-07-05T15:25:44;24.30;41.20
67763;DHT22;54566;52.022;5.582;2022-07-05T15:28:09;24.40;41.20
67763;DHT22;54566;52.022;5.582;2022-07-05T15:30:37;24.10;41.40
67763;DHT22;54566;52.022;5.582;2022-07-05T15:33:06;24.40;41.20
67763;DHT22;54566;52.022;5.582;2022-07-05T15:35:33;24.00;40.50
67763;DHT22;54566;52.022;5.582;2022-07-05T15:37:58;23.60;41.90
67763;DHT22;54566;52.022;5.582;2022-07-05T15:40:24;24.00;41.90
67763;DHT22;54566;52.022;5.582;2022-07-05T15:42:50;23.90;42.70
67763;DHT22;54566;52.022;5.582;2022-07-05T15:45:16;24.10;42.00
67763;DHT22;54566;52.022;5.582;2022-07-05T15:47:41;24.10;41.90
67763;DHT22;54566;52.022;5.582;2022-07-05T15:50:08;24.20;42.70
67763;DHT22;54566;52.022;5.582;2022-07-05T15:52:36;24.20;41.40
67763;DHT22;54566;52.022;5.582;2022-07-05T15:55:02;23.80;41.80
67763;DHT22;54566;52.022;5.582;2022-07-05T15:57:28;23.70;42.20
67763;DHT22;54566;52.022;5.582;2022-07-05T15:59:54;23.70;42.20
67763;DHT22;54566;52.022;5.582;2022-07-05T16:02:22;23.50;42.40